Time;durP1;ratioP1;P1;durP2;ratioP2;P2;SDS_P1;SDS_P2;PMS_P1;PMS_P2;Temp;Humidity;BMP_temperature;BMP_pressure;BME280_temperature;BME280_humidity;BME280_pressure;Samples;Min_cycle;Max_cycle;Signal;HPM_P1;HPM_P2
2022/04/22 00:01:09;;;;;;;32.80;10.00;;;8.30;29.20;;;;;;5002980;28;20483;-59
2022/04/22 00:03:36;;;;;;;33.57;12.10;;;8.30;29.00;;;;;;5007693;28;20467;-59
2022/04/22 00:06:03;;;;;;;35.83;12.50;;;8.30;28.90;;;;;;5012195;28;20458;-61
2022/04/22 00:08:30;;;;;;;32.10;12.03;;;8.20;29.00;;;;;;5011878;28;20488;-58
2022/04/22 00:13:42;;;;;;;31.50;10.23;;;8.20;29.40;;;;;;5004605;28;20473;-59
2022/04/22 00:16:11;;;;;;;32.90;10.70;;;8.20;29.70;;;;;;5011676;28;20476;-59
2022/04/22 00:18:38;;;;;;;37.30;10.00;;;8.20;29.70;;;;;;5010446;28;20478;-58
2022/04/22 00:21:06;;;;;;;34.77;10.73;;;8.10;29.50;;;;;;5004109;28;20469;-59
2022/04/22 00:23:33;;;;;;;30.73;10.53;;;8.10;29.80;;;;;;5009960;28;20476;-59
2022/04/22 00:25:59;;;;;;;35.23;11.20;;;8.10;29.80;;;;;;5007459;28;20464;-58
2022/04/22 00:28:26;;;;;;;32.77;10.77;;;8.10;30.00;;;;;;5005636;28;20499;-57
2022/04/22 00:30:53;;;;;;;32.30;10.63;;;8.10;30.20;;;;;;5002691;28;20483;-58
2022/04/22 00:33:21;;;;;;;34.20;10.63;;;8.00;30.20;;;;;;5001263;28;20460;-57
2022/04/22 00:35:48;;;;;;;33.90;10.63;;;8.10;30.70;;;;;;5005858;28;20837;-57
2022/04/22 00:38:15;;;;;;;34.50;11.33;;;8.10;30.70;;;;;;5006196;28;20578;-57
2022/04/22 00:40:43;;;;;;;34.37;11.47;;;8.10;31.00;;;;;;5004825;28;20841;-57
2022/04/22 00:43:21;;;;;;;32.77;10.40;;;8.00;31.10;;;;;;5002948;28;20503;-58
2022/04/22 00:45:48;;;;;;;33.90;11.33;;;8.00;31.60;;;;;;5005756;28;21014;-60
2022/04/22 00:48:15;;;;;;;34.23;11.20;;;8.00;31.40;;;;;;5004234;28;20579;-59
2022/04/22 00:50:43;;;;;;;35.97;12.47;;;8.00;31.40;;;;;;5005154;28;20487;-59
2022/04/22 00:53:11;;;;;;;37.43;11.63;;;7.90;31.00;;;;;;5004953;28;20483;-59
2022/04/22 00:55:40;;;;;;;35.43;11.87;;;7.90;30.90;;;;;;5005593;28;20494;-59
2022/04/22 00:58:08;;;;;;;33.50;10.60;;;7.90;30.80;;;;;;5004983;28;20507;-58
2022/04/22 01:00:35;;;;;;;36.10;12.30;;;7.80;30.80;;;;;;5004775;28;20488;-58
2022/04/22 01:03:02;;;;;;;39.30;12.50;;;7.80;31.00;;;;;;5003519;28;20464;-58
2022/04/22 01:11:00;;;;;;;35.53;11.93;;;7.70;31.20;;;;;;5005534;28;20552;-58
2022/04/22 01:13:27;;;;;;;40.80;12.07;;;7.70;31.30;;;;;;5005324;28;20545;-58
2022/04/22 01:15:54;;;;;;;35.70;12.13;;;7.60;31.40;;;;;;5004725;28;20464;-58
2022/04/22 01:18:21;;;;;;;36.87;13.07;;;7.60;31.40;;;;;;5001618;28;20838;-58
2022/04/22 01:20:47;;;;;;;37.90;13.17;;;7.60;31.30;;;;;;5005168;28;20468;-59
2022/04/22 01:23:15;;;;;;;35.77;12.90;;;7.60;31.40;;;;;;5009094;28;20464;-58
2022/04/22 01:25:43;;;;;;;35.33;12.30;;;7.60;31.60;;;;;;5000758;28;21031;-59
2022/04/22 01:28:10;;;;;;;37.37;12.63;;;7.60;31.50;;;;;;5004778;28;20611;-58
2022/04/22 01:30:37;;;;;;;35.13;11.87;;;7.50;31.50;;;;;;5005656;28;20491;-56
2022/04/22 01:33:04;;;;;;;35.47;13.40;;;7.50;31.70;;;;;;5007188;28;21037;-58
2022/04/22 01:35:31;;;;;;;38.50;15.30;;;7.50;32.20;;;;;;4999944;28;20464;-59
2022/04/22 01:37:58;;;;;;;35.00;13.03;;;7.50;32.70;;;;;;5004369;28;20478;-59
2022/04/22 01:40:26;;;;;;;35.70;13.53;;;7.50;32.70;;;;;;5005836;28;20476;-57
2022/04/22 01:42:53;;;;;;;36.57;14.73;;;7.50;33.10;;;;;;5000478;28;20460;-58
2022/04/22 01:45:20;;;;;;;38.90;14.10;;;7.50;33.10;;;;;;5001179;28;20471;-57
2022/04/22 01:47:47;;;;;;;37.80;14.93;;;7.40;33.00;;;;;;5002020;28;20495;-58
2022/04/22 01:50:13;;;;;;;37.10;13.53;;;7.40;33.20;;;;;;5003935;28;20957;-58
2022/04/22 01:52:41;;;;;;;39.03;14.53;;;7.40;33.40;;;;;;5010109;28;20483;-59
2022/04/22 01:55:08;;;;;;;37.60;13.80;;;7.40;33.20;;;;;;5000729;28;20507;-58
2022/04/22 01:57:36;;;;;;;36.30;14.03;;;7.40;33.40;;;;;;5001493;28;20502;-58
2022/04/22 02:00:04;;;;;;;40.83;16.13;;;7.40;33.20;;;;;;5007570;28;20892;-59
2022/04/22 02:02:31;;;;;;;37.90;14.23;;;7.40;33.00;;;;;;5000745;28;20571;-57
2022/04/22 02:04:58;;;;;;;38.80;14.90;;;7.40;33.00;;;;;;5004489;28;20463;-58
2022/04/22 02:07:25;;;;;;;36.83;14.17;;;7.30;32.90;;;;;;5000179;28;20856;-59
2022/04/22 02:09:51;;;;;;;37.30;14.03;;;7.40;33.00;;;;;;5003429;28;20494;-59
2022/04/22 02:12:18;;;;;;;40.77;13.90;;;7.40;32.90;;;;;;5004007;28;20911;-58
2022/04/22 02:14:46;;;;;;;41.73;15.17;;;7.30;33.00;;;;;;5005354;28;20475;-58
2022/04/22 02:17:13;;;;;;;38.50;14.33;;;7.30;33.10;;;;;;5004444;28;20570;-58
2022/04/22 02:19:40;;;;;;;38.97;12.73;;;7.30;33.20;;;;;;5003060;28;20464;-60
2022/04/22 02:22:07;;;;;;;39.67;14.43;;;7.30;33.20;;;;;;5002352;28;20989;-58
2022/04/22 02:24:34;;;;;;;38.43;14.30;;;7.20;33.50;;;;;;5004556;28;20468;-59
2022/04/22 02:29:47;;;;;;;42.27;14.70;;;7.20;33.90;;;;;;5001978;28;20506;-58
2022/04/22 02:32:13;;;;;;;40.13;14.53;;;7.20;33.90;;;;;;5002323;28;20480;-59
2022/04/22 02:34:40;;;;;;;40.37;14.20;;;7.20;33.90;;;;;;5008174;28;20463;-59
2022/04/22 02:37:07;;;;;;;41.57;16.80;;;7.20;33.90;;;;;;5002261;28;20488;-59
2022/04/22 02:39:33;;;;;;;43.03;16.43;;;7.20;33.90;;;;;;5003284;28;20471;-62
2022/04/22 02:47:30;;;;;;;40.20;14.70;;;7.10;33.80;;;;;;5000402;28;20840;-59
2022/04/22 02:49:56;;;;;;;43.33;14.70;;;7.20;33.80;;;;;;5005999;28;20463;-58
2022/04/22 02:52:23;;;;;;;41.27;13.97;;;7.10;33.70;;;;;;5004936;28;20487;-59
2022/04/22 02:54:50;;;;;;;47.13;16.70;;;7.10;33.40;;;;;;5003774;28;20464;-58
2022/04/22 02:57:17;;;;;;;43.50;16.60;;;7.10;33.50;;;;;;5006834;28;20503;-57
2022/04/22 02:59:45;;;;;;;42.63;15.37;;;7.10;33.60;;;;;;5007800;28;20876;-58
2022/04/22 03:02:12;;;;;;;44.30;16.37;;;7.10;33.60;;;;;;5006213;28;20483;-58
2022/04/22 03:04:41;;;;;;;43.30;14.20;;;7.00;33.70;;;;;;5011906;28;20460;-58
2022/04/22 03:07:08;;;;;;;44.17;15.57;;;7.00;33.70;;;;;;5006783;28;20503;-58
2022/04/22 03:09:34;;;;;;;44.30;17.70;;;6.90;33.70;;;;;;5004548;28;20468;-59
2022/04/22 03:12:01;;;;;;;48.37;16.17;;;7.00;33.80;;;;;;5004370;28;20487;-58
2022/04/22 03:14:29;;;;;;;44.10;16.10;;;7.00;33.60;;;;;;5006441;28;20471;-59
2022/04/22 03:16:55;;;;;;;43.00;16.90;;;6.90;33.80;;;;;;5006655;28;20543;-58
2022/04/22 03:19:22;;;;;;;44.77;17.30;;;6.90;33.70;;;;;;5011475;28;21138;-59
2022/04/22 03:21:50;;;;;;;45.60;17.00;;;6.80;33.70;;;;;;5010910;28;20888;-57
2022/04/22 03:24:17;;;;;;;45.20;16.97;;;6.90;33.80;;;;;;5004726;28;20977;-58
2022/04/22 03:26:44;;;;;;;44.57;17.50;;;6.80;33.80;;;;;;5007817;28;20455;-58
2022/04/22 03:29:10;;;;;;;46.30;17.23;;;6.80;34.00;;;;;;5006149;28;20487;-58
2022/04/22 03:31:37;;;;;;;45.37;17.93;;;6.80;34.10;;;;;;5005712;28;20480;-57
2022/04/22 03:34:04;;;;;;;47.20;17.53;;;6.80;34.40;;;;;;5005165;28;20548;-58
2022/04/22 03:36:31;;;;;;;44.27;17.37;;;6.80;34.40;;;;;;5006338;28;20464;-58
2022/04/22 03:38:59;;;;;;;46.23;17.93;;;6.80;34.60;;;;;;5005561;28;20518;-59
2022/04/22 03:41:25;;;;;;;46.13;17.80;;;6.70;34.70;;;;;;5004667;28;20468;-58
2022/04/22 03:43:52;;;;;;;47.40;16.50;;;6.70;34.80;;;;;;5005688;28;20474;-58
2022/04/22 03:46:19;;;;;;;47.80;18.10;;;6.60;34.90;;;;;;5005112;28;20464;-59
2022/04/22 03:48:46;;;;;;;48.23;16.97;;;6.60;35.00;;;;;;5005883;28;20507;-58
2022/04/22 03:51:13;;;;;;;46.97;16.40;;;6.60;34.80;;;;;;5007132;28;20468;-58
2022/04/22 03:53:41;;;;;;;51.73;18.93;;;6.50;35.00;;;;;;5005332;28;20487;-58
2022/04/22 03:58:52;;;;;;;53.60;17.50;;;6.50;34.70;;;;;;4991746;28;20486;-59
2022/04/22 04:01:19;;;;;;;48.43;20.37;;;6.40;34.70;;;;;;5001272;28;20488;-58
2022/04/22 04:03:46;;;;;;;48.80;19.27;;;6.40;34.70;;;;;;5003133;28;20460;-59
2022/04/22 04:06:12;;;;;;;49.70;19.77;;;6.40;34.80;;;;;;5005505;28;20475;-60
2022/04/22 04:08:39;;;;;;;49.87;20.07;;;6.40;35.10;;;;;;5008958;28;20492;-58
2022/04/22 04:16:38;;;;;;;47.37;18.47;;;6.40;35.60;;;;;;4982515;28;20462;-59
2022/04/22 04:24:53;;;;;;;49.50;21.10;;;6.40;36.10;;;;;;4947417;28;20446;-58
2022/04/22 04:27:22;;;;;;;51.50;19.80;;;6.40;35.90;;;;;;4950637;28;20565;-57
2022/04/22 04:29:50;;;;;;;49.80;19.80;;;6.40;35.90;;;;;;4975040;28;20492;-58
2022/04/22 04:32:17;;;;;;;50.67;19.13;;;6.40;35.80;;;;;;5009586;28;20479;-59
2022/04/22 04:34:44;;;;;;;51.00;20.27;;;6.50;35.60;;;;;;5007144;28;20476;-59
2022/04/22 04:37:11;;;;;;;47.97;19.23;;;6.50;35.60;;;;;;5004851;28;20495;-59
2022/04/22 04:39:37;;;;;;;50.40;18.90;;;6.50;35.40;;;;;;5006145;28;21050;-58
2022/04/22 04:42:04;;;;;;;51.03;20.33;;;6.50;35.30;;;;;;5007581;28;20463;-59
2022/04/22 04:44:31;;;;;;;49.80;21.73;;;6.60;35.30;;;;;;5004508;28;20463;-59
2022/04/22 04:46:59;;;;;;;52.20;20.27;;;6.60;35.20;;;;;;5005684;28;20559;-58
2022/04/22 04:49:27;;;;;;;50.00;19.57;;;6.60;35.40;;;;;;5004972;28;20487;-59
2022/04/22 04:51:54;;;;;;;53.00;21.60;;;6.60;35.40;;;;;;5010223;28;20480;-58
2022/04/22 04:54:20;;;;;;;50.50;20.17;;;6.70;35.40;;;;;;5006295;28;20460;-59
2022/04/22 04:56:47;;;;;;;50.33;20.77;;;6.80;35.30;;;;;;5006497;28;20475;-58
2022/04/22 04:59:14;;;;;;;49.33;19.87;;;6.80;35.20;;;;;;5004746;28;20459;-57
2022/04/22 05:01:41;;;;;;;50.63;19.90;;;6.90;35.30;;;;;;5005041;28;20567;-58
2022/04/22 05:04:09;;;;;;;49.67;19.90;;;7.00;35.40;;;;;;5002610;28;20455;-59
2022/04/22 05:06:36;;;;;;;48.57;17.53;;;7.20;35.50;;;;;;5005409;28;20467;-59
2022/04/22 05:09:03;;;;;;;50.63;19.30;;;7.50;35.40;;;;;;5003810;28;20479;-59
2022/04/22 05:11:29;;;;;;;49.80;17.17;;;7.80;35.30;;;;;;5004161;28;20490;-60
2022/04/22 05:13:58;;;;;;;47.10;17.23;;;8.00;35.00;;;;;;5000554;28;20484;-58
2022/04/22 05:16:25;;;;;;;46.80;17.73;;;8.30;34.50;;;;;;5003929;28;20518;-59
2022/04/22 05:18:52;;;;;;;47.40;17.20;;;8.60;33.80;;;;;;5003641;28;20494;-57
2022/04/22 05:21:20;;;;;;;46.10;15.77;;;8.90;32.50;;;;;;5004809;28;20460;-57
2022/04/22 05:23:46;;;;;;;44.77;15.70;;;9.20;31.30;;;;;;5005523;28;21008;-58
2022/04/22 05:26:13;;;;;;;47.83;16.37;;;9.40;30.30;;;;;;5002106;28;20474;-59
2022/04/22 05:28:40;;;;;;;43.17;15.33;;;9.80;29.40;;;;;;5002171;28;20491;-59
2022/04/22 05:33:51;;;;;;;45.50;15.70;;;10.70;26.90;;;;;;5005442;28;20479;-58
2022/04/22 05:36:19;;;;;;;44.53;14.50;;;11.60;25.00;;;;;;5003641;28;20491;-58
2022/04/22 05:38:46;;;;;;;45.20;16.93;;;12.50;22.40;;;;;;5002220;28;20558;-60
2022/04/22 05:41:14;;;;;;;42.70;15.23;;;13.70;19.80;;;;;;5004751;28;20460;-59
2022/04/22 05:43:40;;;;;;;45.10;16.37;;;14.80;17.50;;;;;;5003884;28;20463;-58
2022/04/22 05:46:07;;;;;;;42.73;15.60;;;15.80;15.30;;;;;;5001918;28;20468;-59
2022/04/22 05:48:34;;;;;;;41.93;16.17;;;16.80;13.70;;;;;;5010648;28;20476;-59
2022/04/22 05:51:01;;;;;;;41.80;15.27;;;17.70;11.80;;;;;;5004790;28;20464;-59
2022/04/22 05:53:29;;;;;;;40.50;14.80;;;18.60;10.20;;;;;;5004642;28;20479;-60
2022/04/22 05:55:57;;;;;;;39.50;14.87;;;19.60;8.70;;;;;;4998856;28;21045;-59
2022/04/22 05:58:24;;;;;;;40.17;15.70;;;20.50;7.80;;;;;;5007541;28;20494;-60
2022/04/22 06:00:51;;;;;;;38.60;15.10;;;21.20;5.90;;;;;;5004514;28;20483;-59
2022/04/22 06:03:18;;;;;;;38.67;15.50;;;21.70;4.70;;;;;;5003536;28;20462;-60
2022/04/22 06:05:45;;;;;;;42.73;16.50;;;22.40;4.20;;;;;;5007209;28;20483;-60
2022/04/22 06:10:58;;;;;;;39.73;16.40;;;22.90;3.20;;;;;;5006455;28;20590;-60
2022/04/22 06:13:24;;;;;;;38.93;16.00;;;23.00;2.90;;;;;;5004095;28;20487;-61
2022/04/22 06:15:51;;;;;;;39.57;16.40;;;23.30;2.50;;;;;;5005050;28;20470;-60
2022/04/22 06:18:18;;;;;;;38.37;16.50;;;23.70;2.20;;;;;;5007271;28;20575;-59
2022/04/22 06:20:45;;;;;;;38.50;15.90;;;24.10;1.80;;;;;;5005670;28;20967;-60
2022/04/22 06:23:12;;;;;;;37.40;17.23;;;24.10;1.60;;;;;;5007932;28;20476;-59
2022/04/22 06:25:40;;;;;;;36.87;15.73;;;24.40;1.60;;;;;;5004236;28;20467;-60
2022/04/22 06:28:08;;;;;;;40.10;18.17;;;25.20;1.00;;;;;;5006424;28;20490;-60
2022/04/22 06:30:35;;;;;;;38.90;17.60;;;26.30;1.00;;;;;;5007317;28;20468;-60
2022/04/22 06:33:03;;;;;;;40.13;18.60;;;27.30;1.00;;;;;;5012582;28;20483;-60
2022/04/22 06:35:30;;;;;;;37.70;16.43;;;28.10;1.00;;;;;;5001495;28;20471;-60
2022/04/22 06:37:57;;;;;;;39.77;18.30;;;28.40;1.00;;;;;;5003909;28;20483;-60
2022/04/22 06:45:56;;;;;;;41.03;17.60;;;27.50;1.00;;;;;;5013001;28;20540;-60
2022/04/22 06:48:29;;;;;;;40.43;18.90;;;27.00;1.00;;;;;;5010534;28;20482;-60
2022/04/22 06:50:56;;;;;;;39.40;19.20;;;26.20;1.00;;;;;;5006993;28;20969;-59
2022/04/22 06:53:24;;;;;;;38.13;17.40;;;26.40;1.00;;;;;;5011440;28;20569;-62
2022/04/22 06:55:53;;;;;;;39.97;18.30;;;26.70;1.00;;;;;;5003652;28;20460;-59
2022/04/22 06:58:22;;;;;;;37.17;18.40;;;27.80;1.00;;;;;;5015288;28;20487;-59
2022/04/22 07:00:49;;;;;;;38.60;19.13;;;28.80;1.00;;;;;;5005079;28;20487;-58
2022/04/22 07:03:17;;;;;;;37.97;18.10;;;29.50;1.00;;;;;;5005011;28;20463;-60
2022/04/22 07:05:45;;;;;;;36.57;18.03;;;30.60;1.00;;;;;;5005734;28;20460;-61
2022/04/22 07:08:14;;;;;;;36.23;17.87;;;31.40;1.00;;;;;;5006781;28;21146;-61
2022/04/22 07:10:42;;;;;;;36.13;17.57;;;32.20;1.00;;;;;;5002869;28;20460;-60
2022/04/22 07:13:10;;;;;;;37.50;18.20;;;32.90;1.00;;;;;;5009334;28;21774;-62
2022/04/22 07:15:39;;;;;;;35.83;17.37;;;34.20;1.00;;;;;;5010404;28;20491;-59
2022/04/22 07:18:07;;;;;;;38.70;17.80;;;34.20;1.00;;;;;;5006573;28;20511;-59
2022/04/22 07:20:35;;;;;;;36.10;16.97;;;34.10;1.00;;;;;;5005077;28;20487;-59
2022/04/22 07:23:02;;;;;;;34.00;16.60;;;34.80;1.00;;;;;;5005127;28;20452;-59
2022/04/22 07:25:29;;;;;;;35.40;17.10;;;35.60;1.00;;;;;;5005483;28;20550;-60
2022/04/22 07:27:58;;;;;;;35.27;16.90;;;36.70;1.00;;;;;;5005750;28;20480;-60
2022/04/22 07:30:26;;;;;;;36.23;16.27;;;37.20;1.00;;;;;;5002432;28;20478;-60
2022/04/22 07:32:55;;;;;;;34.40;16.00;;;37.60;1.00;;;;;;5006325;28;20488;-60
2022/04/22 07:35:22;;;;;;;32.17;15.20;;;38.70;1.00;;;;;;5013009;28;20467;-60
2022/04/22 07:37:51;;;;;;;32.63;15.07;;;39.60;1.00;;;;;;5002754;28;20883;-60
2022/04/22 07:40:20;;;;;;;32.27;15.37;;;40.10;1.00;;;;;;4999722;28;20481;-59
2022/04/22 07:48:18;;;;;;;30.40;14.23;;;41.10;1.00;;;;;;5005647;28;20491;-59
2022/04/22 07:50:45;;;;;;;30.87;15.47;;;41.80;1.00;;;;;;5010292;28;20973;-59
2022/04/22 07:53:12;;;;;;;29.93;13.97;;;42.40;1.00;;;;;;5007250;28;20515;-60
2022/04/22 07:55:39;;;;;;;31.50;14.87;;;42.70;1.00;;;;;;5008276;28;20463;-59
2022/04/22 07:58:07;;;;;;;29.40;13.90;;;42.80;1.00;;;;;;5004198;28;20503;-59
2022/04/22 08:00:33;;;;;;;28.77;13.30;;;42.40;1.00;;;;;;5004726;28;21018;-59
2022/04/22 08:03:00;;;;;;;31.50;14.23;;;41.80;1.00;;;;;;5012179;28;20459;-62
2022/04/22 08:05:28;;;;;;;30.73;14.43;;;42.00;1.00;;;;;;5007978;28;20467;-61
2022/04/22 08:07:55;;;;;;;29.70;14.70;;;42.20;1.00;;;;;;5003360;28;20490;-60
2022/04/22 08:10:22;;;;;;;30.20;15.23;;;42.10;1.00;;;;;;4999168;28;20471;-60
2022/04/22 08:12:49;;;;;;;30.63;13.87;;;41.50;1.00;;;;;;5003221;28;21208;-60
2022/04/22 08:15:16;;;;;;;28.57;13.70;;;41.70;1.00;;;;;;5002785;28;20467;-60
2022/04/22 08:17:42;;;;;;;28.20;12.23;;;42.30;1.00;;;;;;5005600;28;20479;-59
2022/04/22 08:20:11;;;;;;;29.20;14.27;;;42.90;1.00;;;;;;5002983;28;20472;-60
2022/04/22 08:22:39;;;;;;;30.37;14.30;;;43.40;1.00;;;;;;5006205;28;20980;-61
2022/04/22 08:25:07;;;;;;;29.20;13.20;;;44.00;1.00;;;;;;5004246;28;20452;-60
2022/04/22 08:27:34;;;;;;;28.40;13.73;;;44.50;1.00;;;;;;5006001;28;21275;-60
2022/04/22 08:30:01;;;;;;;28.93;13.53;;;45.10;1.00;;;;;;5005675;28;20541;-59
2022/04/22 08:32:28;;;;;;;27.50;12.93;;;45.60;1.00;;;;;;5007196;28;20560;-60
2022/04/22 08:34:55;;;;;;;28.50;13.17;;;45.80;1.00;;;;;;5000627;28;20497;-61
2022/04/22 08:37:21;;;;;;;29.20;13.70;;;45.50;1.00;;;;;;5004380;28;20483;-60
2022/04/22 08:39:49;;;;;;;30.17;13.27;;;45.20;1.00;;;;;;5002795;28;20459;-60
2022/04/22 08:42:17;;;;;;;27.40;13.20;;;44.90;1.00;;;;;;5000350;28;20612;-61
2022/04/22 08:44:44;;;;;;;28.40;13.30;;;44.90;1.00;;;;;;5004658;28;20468;-59
2022/04/22 08:50:02;;;;;;;28.37;12.57;;;44.60;1.00;;;;;;5001924;28;20450;-60
2022/04/22 08:52:34;;;;;;;27.77;13.03;;;45.20;1.00;;;;;;5004203;28;20468;-60
2022/04/22 08:55:06;;;;;;;27.93;13.17;;;45.80;1.00;;;;;;5004046;28;20544;-61
2022/04/22 08:57:33;;;;;;;27.67;12.60;;;45.80;1.00;;;;;;5006560;28;20526;-60
2022/04/22 09:00:01;;;;;;;28.87;13.70;;;45.90;1.00;;;;;;5001976;28;20460;-60
2022/04/22 09:02:28;;;;;;;27.17;13.10;;;45.60;1.00;;;;;;5004692;28;20476;-61
2022/04/22 09:04:56;;;;;;;28.67;13.27;;;45.30;1.00;;;;;;4999412;28;20488;-60
2022/04/22 09:07:26;;;;;;;28.10;13.03;;;44.70;1.00;;;;;;5003625;28;20589;-60
2022/04/22 09:09:53;;;;;;;28.67;13.13;;;44.00;1.00;;;;;;5005412;28;20460;-60
2022/04/22 09:12:23;;;;;;;30.07;13.30;;;43.60;1.00;;;;;;5003747;28;20547;-60
2022/04/22 09:14:52;;;;;;;28.43;13.53;;;43.60;1.00;;;;;;5007388;28;20486;-62
2022/04/22 09:17:23;;;;;;;31.57;14.47;;;43.40;1.00;;;;;;5005666;28;20479;-60
2022/04/22 09:19:51;;;;;;;28.47;13.03;;;43.20;1.00;;;;;;5005573;28;21000;-59
2022/04/22 09:22:19;;;;;;;28.30;13.73;;;43.90;1.00;;;;;;5001165;28;20864;-60
2022/04/22 09:24:48;;;;;;;29.60;13.77;;;44.70;1.00;;;;;;5003845;28;20467;-60
2022/04/22 09:27:15;;;;;;;29.30;11.90;;;45.40;1.00;;;;;;4998554;28;20491;-60
2022/04/22 09:29:44;;;;;;;28.40;12.70;;;45.60;1.00;;;;;;5003171;28;20465;-59
2022/04/22 09:32:12;;;;;;;28.07;12.50;;;45.80;1.00;;;;;;5004908;28;20491;-59
2022/04/22 09:34:42;;;;;;;28.00;12.53;;;45.00;1.00;;;;;;4999632;28;20905;-60
2022/04/22 09:42:50;;;;;;;27.63;11.97;;;44.40;1.00;;;;;;5003738;28;20506;-60
2022/04/22 09:45:18;;;;;;;30.30;13.20;;;43.90;1.00;;;;;;5003787;28;20462;-60
2022/04/22 09:47:57;;;;;;;29.23;12.00;;;44.40;1.00;;;;;;5005431;28;20484;-61
2022/04/22 09:50:40;;;;;;;29.00;13.10;;;44.20;1.00;;;;;;5006523;28;20467;-61
2022/04/22 09:53:07;;;;;;;28.63;13.07;;;44.10;1.00;;;;;;5000833;28;20488;-61
2022/04/22 09:55:36;;;;;;;32.53;12.63;;;44.10;1.00;;;;;;5004580;28;20488;-61
2022/04/22 09:58:03;;;;;;;28.40;12.50;;;44.60;1.00;;;;;;5005196;28;20495;-60
2022/04/22 10:00:33;;;;;;;30.53;12.67;;;45.20;1.00;;;;;;5000204;28;20472;-61
2022/04/22 10:03:00;;;;;;;26.83;12.43;;;45.40;1.00;;;;;;5001865;28;20957;-60
2022/04/22 10:05:28;;;;;;;29.40;12.80;;;44.80;1.00;;;;;;5009098;28;20544;-60
2022/04/22 10:07:57;;;;;;;29.43;12.93;;;44.10;1.00;;;;;;5012331;28;20483;-60
2022/04/22 10:10:29;;;;;;;28.27;12.53;;;44.40;1.00;;;;;;5014748;28;20472;-60
2022/04/22 10:12:58;;;;;;;27.97;12.57;;;44.50;1.00;;;;;;5002612;28;20475;-59
2022/04/22 10:15:27;;;;;;;27.97;13.00;;;44.60;1.00;;;;;;5007441;28;20537;-61
2022/04/22 10:17:56;;;;;;;28.50;12.50;;;44.90;1.00;;;;;;5011620;28;20490;-59
2022/04/22 10:20:25;;;;;;;28.07;13.00;;;44.80;1.00;;;;;;5008577;28;20474;-61
2022/04/22 10:22:52;;;;;;;28.23;12.50;;;44.70;1.00;;;;;;5014325;28;20477;-60
2022/04/22 10:25:19;;;;;;;35.33;13.60;;;44.60;1.00;;;;;;5006354;28;20456;-60
2022/04/22 10:27:47;;;;;;;27.43;11.90;;;44.50;1.00;;;;;;5011280;28;21005;-59
2022/04/22 10:30:15;;;;;;;29.20;13.43;;;44.60;1.00;;;;;;5006553;28;20529;-61
2022/04/22 10:32:45;;;;;;;28.90;13.80;;;44.50;1.00;;;;;;5005897;28;21237;-60
2022/04/22 10:35:14;;;;;;;29.90;12.80;;;43.80;1.00;;;;;;5002122;28;20570;-60
2022/04/22 10:37:41;;;;;;;30.67;13.57;;;41.70;1.00;;;;;;5006552;28;20556;-60
2022/04/22 10:40:18;;;;;;;30.53;13.53;;;39.50;1.00;;;;;;5005375;28;20459;-59
2022/04/22 10:42:45;;;;;;;33.07;13.77;;;37.70;1.00;;;;;;5003375;28;20462;-60
2022/04/22 10:47:57;;;;;;;35.10;15.07;;;34.30;1.00;;;;;;5004280;28;20474;-60
2022/04/22 10:50:27;;;;;;;34.67;14.13;;;32.10;1.00;;;;;;5009662;28;20471;-59
2022/04/22 10:53:01;;;;;;;33.63;13.50;;;30.40;1.00;;;;;;5005011;28;20460;-59
2022/04/22 10:55:30;;;;;;;35.80;14.43;;;29.20;1.00;;;;;;5002742;28;20553;-59
2022/04/22 10:58:23;;;;;;;37.23;15.00;;;28.40;1.00;;;;;;5005308;28;20538;-59
2022/04/22 11:00:52;;;;;;;33.93;13.50;;;27.70;1.00;;;;;;5008163;28;20467;-60
2022/04/22 11:03:20;;;;;;;35.13;15.50;;;27.30;1.00;;;;;;5008449;28;20460;-59
2022/04/22 11:05:58;;;;;;;32.57;13.47;;;26.90;1.00;;;;;;5005072;28;20457;-61
2022/04/22 11:08:33;;;;;;;38.47;14.63;;;26.60;1.00;;;;;;5006455;28;20483;-61
2022/04/22 11:11:13;;;;;;;33.70;14.63;;;26.30;1.00;;;;;;5007922;28;20462;-61
2022/04/22 11:13:42;;;;;;;34.90;14.30;;;26.00;1.00;;;;;;5005623;28;20512;-61
2022/04/22 11:16:12;;;;;;;36.57;14.30;;;25.80;1.00;;;;;;5006621;28;20464;-61
2022/04/22 11:18:40;;;;;;;33.40;14.27;;;25.80;1.00;;;;;;5012183;28;20505;-62
2022/04/22 11:21:15;;;;;;;35.40;13.83;;;25.70;1.00;;;;;;5002103;28;21902;-61
2022/04/22 11:23:43;;;;;;;36.30;14.10;;;25.50;1.00;;;;;;5005367;28;20528;-58
2022/04/22 11:26:12;;;;;;;34.77;14.50;;;25.30;1.00;;;;;;5006036;28;20595;-59
2022/04/22 11:28:40;;;;;;;34.50;14.03;;;25.10;1.00;;;;;;5008113;28;20479;-59
2022/04/22 11:31:09;;;;;;;38.23;15.73;;;24.90;1.00;;;;;;5003465;28;20475;-60
2022/04/22 11:33:46;;;;;;;37.30;14.03;;;24.80;1.00;;;;;;5003011;28;20475;-59
2022/04/22 11:36:14;;;;;;;34.53;13.80;;;24.70;1.00;;;;;;5008197;28;20465;-59
2022/04/22 11:38:48;;;;;;;36.30;15.03;;;24.70;1.00;;;;;;5006032;28;20872;-65
2022/04/22 11:41:16;;;;;;;37.00;14.60;;;24.30;1.00;;;;;;5006235;28;20476;-62
2022/04/22 11:43:43;;;;;;;36.80;15.53;;;24.10;1.70;;;;;;5007389;28;20888;-61
2022/04/22 11:46:11;;;;;;;37.20;16.30;;;23.90;1.60;;;;;;5006421;28;21028;-61
2022/04/22 11:48:46;;;;;;;38.67;15.63;;;23.70;1.10;;;;;;5009850;28;20506;-61
2022/04/22 11:51:15;;;;;;;36.77;16.63;;;23.40;2.00;;;;;;5008315;28;20467;-61
2022/04/22 11:53:50;;;;;;;38.40;16.53;;;23.10;2.30;;;;;;5001764;28;20499;-61
2022/04/22 11:56:18;;;;;;;35.17;15.37;;;22.90;2.80;;;;;;5004364;28;20503;-62
2022/04/22 11:58:45;;;;;;;35.50;15.20;;;22.80;4.00;;;;;;5009205;28;20491;-61
2022/04/22 12:06:41;;;;;;;36.30;14.80;;;22.20;3.50;;;;;;5007008;28;20454;-60
2022/04/22 12:09:08;;;;;;;38.23;15.20;;;22.00;3.90;;;;;;5005970;28;21096;-60
2022/04/22 12:11:41;;;;;;;34.90;12.40;;;21.90;4.80;;;;;;5007643;28;20464;-61
2022/04/22 12:14:09;;;;;;;35.70;12.67;;;21.90;4.50;;;;;;5001320;28;20460;-61
2022/04/22 12:16:36;;;;;;;34.43;13.70;;;21.80;4.20;;;;;;5004980;28;20467;-59
2022/04/22 12:19:03;;;;;;;41.97;14.07;;;21.70;4.40;;;;;;5005750;28;20488;-61
2022/04/22 12:21:33;;;;;;;36.37;14.63;;;21.70;4.20;;;;;;5006632;28;20500;-64
2022/04/22 12:24:03;;;;;;;37.20;13.27;;;21.60;5.40;;;;;;5005528;28;20464;-61
2022/04/22 12:26:32;;;;;;;34.27;12.93;;;21.50;4.80;;;;;;5002092;28;20849;-61
2022/04/22 12:29:00;;;;;;;34.77;13.20;;;21.40;5.30;;;;;;5006661;28;21299;-60
2022/04/22 12:31:30;;;;;;;38.97;13.67;;;21.40;6.20;;;;;;5007731;28;20558;-61
2022/04/22 12:34:00;;;;;;;35.10;13.30;;;21.50;6.30;;;;;;5002453;28;20464;-60
2022/04/22 12:36:28;;;;;;;35.57;12.27;;;21.40;5.40;;;;;;5001153;28;20480;-59
2022/04/22 12:38:55;;;;;;;34.87;12.93;;;21.30;5.70;;;;;;5006658;28;20479;-62
2022/04/22 12:41:23;;;;;;;36.20;12.07;;;21.30;4.90;;;;;;5010229;28;20720;-61
2022/04/22 12:43:52;;;;;;;37.67;11.90;;;21.10;4.90;;;;;;5007426;28;20462;-61
2022/04/22 12:52:14;;;;;;;33.70;11.60;;;20.90;5.90;;;;;;5005739;28;20556;-60
2022/04/22 12:54:42;;;;;;;36.67;12.47;;;20.90;6.30;;;;;;5005331;28;20486;-60
2022/04/22 12:57:17;;;;;;;35.07;12.67;;;20.90;5.80;;;;;;5008844;28;20585;-60
2022/04/22 12:59:44;;;;;;;34.17;11.40;;;20.80;5.40;;;;;;5009056;28;20455;-63
2022/04/22 13:02:13;;;;;;;35.23;12.47;;;20.80;6.20;;;;;;5000767;28;20663;-61
2022/04/22 13:04:54;;;;;;;37.00;12.87;;;20.80;5.70;;;;;;5004348;28;22386;-60
2022/04/22 13:07:22;;;;;;;35.30;12.60;;;20.70;6.50;;;;;;5009105;28;20518;-62
2022/04/22 13:09:49;;;;;;;34.70;12.03;;;20.70;6.10;;;;;;5001088;28;20484;-61
2022/04/22 13:12:17;;;;;;;38.00;13.37;;;20.60;6.30;;;;;;5008064;28;20538;-60
2022/04/22 13:14:45;;;;;;;38.70;11.57;;;20.60;5.70;;;;;;5001357;28;20579;-61
2022/04/22 13:17:24;;;;;;;35.83;11.47;;;20.50;5.70;;;;;;5004279;28;20492;-63
2022/04/22 13:19:51;;;;;;;36.10;12.60;;;20.50;6.30;;;;;;5007120;28;20493;-62
2022/04/22 13:22:17;;;;;;;33.87;11.90;;;20.50;6.20;;;;;;5005612;28;21333;-60
2022/04/22 13:24:45;;;;;;;36.93;12.00;;;20.30;6.20;;;;;;5005383;28;20456;-60
2022/04/22 13:27:13;;;;;;;34.43;12.70;;;20.20;6.50;;;;;;5011574;28;20486;-60
2022/04/22 13:29:42;;;;;;;36.13;11.33;;;20.20;6.70;;;;;;5005440;28;20451;-62
2022/04/22 13:32:11;;;;;;;34.40;11.80;;;20.20;7.60;;;;;;5006703;28;20476;-62
2022/04/22 13:34:38;;;;;;;36.20;12.60;;;20.30;7.40;;;;;;5005225;28;20464;-62
2022/04/22 13:37:05;;;;;;;34.70;12.60;;;20.30;6.50;;;;;;5002871;28;20465;-60
2022/04/22 13:39:32;;;;;;;35.20;11.83;;;20.40;6.80;;;;;;5001784;28;20472;-60
2022/04/22 13:41:58;;;;;;;34.47;11.67;;;20.30;6.30;;;;;;5003714;28;20860;-60
2022/04/22 13:52:39;;;;;;;32.60;8.50;;;19.90;5.80;;;;;;5007259;28;20957;-62
2022/04/22 13:55:06;;;;;;;35.50;10.90;;;19.90;5.60;;;;;;5005410;28;20487;-60
2022/04/22 13:57:33;;;;;;;36.50;12.10;;;19.90;6.20;;;;;;5005382;28;20923;-59